Time;durP1;ratioP1;P1;durP2;ratioP2;P2;SDS_P1;SDS_P2;PMS_P1;PMS_P2;Temp;Humidity;BMP_temperature;BMP_pressure;BME280_temperature;BME280_humidity;BME280_pressure;Samples;Min_cycle;Max_cycle;Signal;HPM_P1;HPM_P2
2023/01/20 00:00:10;;;;;;;33.10;20.17;;;;;;;;;;769553;181;918891;-60
2023/01/20 00:02:36;;;;;;;33.43;20.67;;;;;;;;;;768493;180;920285;-60
2023/01/20 00:05:01;;;;;;;34.10;19.00;;;;;;;;;;772172;180;1017424;-65
2023/01/20 00:07:27;;;;;;;30.27;19.93;;;;;;;;;;774289;181;919773;-60
2023/01/20 00:09:53;;;;;;;36.87;18.87;;;;;;;;;;769586;181;816386;-59
2023/01/20 00:12:19;;;;;;;39.25;20.12;;;;;;;;;;774055;180;916174;-64
2023/01/20 00:14:45;;;;;;;34.20;19.73;;;;;;;;;;780013;181;919110;-61
2023/01/20 00:17:11;;;;;;;33.67;18.80;;;;;;;;;;769460;181;919304;-60
2023/01/20 00:19:37;;;;;;;30.97;19.50;;;;;;;;;;772878;180;919457;-63
2023/01/20 00:22:02;;;;;;;37.73;20.87;;;;;;;;;;776667;180;823756;-63
2023/01/20 00:24:28;;;;;;;39.10;21.85;;;;;;;;;;772281;180;918080;-60
2023/01/20 00:26:54;;;;;;;31.00;18.20;;;;;;;;;;774850;179;1019490;-63
2023/01/20 00:29:20;;;;;;;39.50;23.50;;;;;;;;;;770907;177;916092;-60
2023/01/20 00:31:46;;;;;;;120.72;52.58;;;;;;;;;;768066;180;842386;-65
2023/01/20 00:34:12;;;;;;;127.17;52.87;;;;;;;;;;750760;185;887278;-60
2023/01/20 00:36:37;;;;;;;97.30;46.20;;;;;;;;;;756859;184;1021642;-60
2023/01/20 00:39:03;;;;;;;51.90;28.50;;;;;;;;;;760672;184;875342;-63
2023/01/20 00:41:29;;;;;;;68.23;35.30;;;;;;;;;;772529;181;920625;-64
2023/01/20 00:43:55;;;;;;;95.30;43.17;;;;;;;;;;769454;179;927383;-63
2023/01/20 00:46:21;;;;;;;107.05;50.25;;;;;;;;;;778187;181;910035;-60
2023/01/20 00:48:47;;;;;;;75.80;39.37;;;;;;;;;;769715;180;919426;-63
2023/01/20 00:51:12;;;;;;;65.27;31.77;;;;;;;;;;768490;180;931976;-60
2023/01/20 00:53:38;;;;;;;77.73;35.50;;;;;;;;;;777746;181;918744;-60
2023/01/20 00:56:05;;;;;;;72.63;37.57;;;;;;;;;;771784;180;919773;-60
2023/01/20 00:58:30;;;;;;;69.73;34.03;;;;;;;;;;769417;181;919325;-63
2023/01/20 01:00:57;;;;;;;48.30;26.25;;;;;;;;;;773470;180;921671;-64
2023/01/20 01:03:22;;;;;;;58.50;26.40;;;;;;;;;;776025;180;911282;-65
2023/01/20 01:05:48;;;;;;;52.97;29.07;;;;;;;;;;774482;179;919970;-64
2023/01/20 01:08:14;;;;;;;49.57;27.43;;;;;;;;;;771385;180;920037;-60
2023/01/20 01:10:40;;;;;;;68.43;35.63;;;;;;;;;;773403;181;928514;-63
2023/01/20 01:13:06;;;;;;;61.40;31.77;;;;;;;;;;769686;181;919788;-60
2023/01/20 01:15:31;;;;;;;61.90;32.20;;;;;;;;;;771820;181;914966;-60
2023/01/20 01:17:57;;;;;;;57.07;27.07;;;;;;;;;;773915;180;915946;-60
2023/01/20 01:20:23;;;;;;;49.60;26.40;;;;;;;;;;772056;181;915476;-63
2023/01/20 01:22:49;;;;;;;60.30;26.93;;;;;;;;;;767141;180;919317;-60
2023/01/20 01:25:15;;;;;;;31.20;19.27;;;;;;;;;;768788;181;918952;-64
2023/01/20 01:27:41;;;;;;;27.33;16.77;;;;;;;;;;774532;180;920634;-60
2023/01/20 01:30:07;;;;;;;31.23;17.83;;;;;;;;;;771736;181;919312;-60
2023/01/20 01:32:33;;;;;;;30.47;17.53;;;;;;;;;;773817;180;940299;-60
2023/01/20 01:34:59;;;;;;;39.80;19.27;;;;;;;;;;773944;181;918345;-60
2023/01/20 01:37:24;;;;;;;40.00;21.00;;;;;;;;;;763628;181;918806;-60
2023/01/20 01:39:50;;;;;;;41.77;20.47;;;;;;;;;;777501;179;919824;-60
2023/01/20 01:42:16;;;;;;;39.92;22.25;;;;;;;;;;782705;179;818052;-60
2023/01/20 01:44:48;;;;;;;40.60;24.07;;;;;;;;;;761809;180;816404;-64
2023/01/20 01:47:14;;;;;;;41.60;22.93;;;;;;;;;;746385;187;918081;-60
2023/01/20 01:49:40;;;;;;;36.67;22.13;;;;;;;;;;741321;187;919218;-63
2023/01/20 01:52:07;;;;;;;36.80;21.57;;;;;;;;;;746396;187;816200;-63
2023/01/20 01:54:32;;;;;;;39.23;21.50;;;;;;;;;;779699;179;816723;-60
2023/01/20 01:56:58;;;;;;;38.37;21.30;;;;;;;;;;771066;179;917372;-65
2023/01/20 01:59:24;;;;;;;40.20;22.53;;;;;;;;;;768966;183;871438;-60
2023/01/20 02:01:49;;;;;;;36.63;20.97;;;;;;;;;;770976;180;916990;-60
2023/01/20 02:04:15;;;;;;;42.43;23.27;;;;;;;;;;769187;180;918097;-64
2023/01/20 02:06:42;;;;;;;42.22;22.60;;;;;;;;;;766887;181;847949;-61
2023/01/20 02:09:08;;;;;;;37.43;20.93;;;;;;;;;;770262;181;1019791;-60
2023/01/20 02:11:36;;;;;;;40.13;21.70;;;;;;;;;;769470;179;918818;-60
2023/01/20 02:14:02;;;;;;;35.80;21.23;;;;;;;;;;768993;181;920544;-61
2023/01/20 02:16:27;;;;;;;41.53;23.63;;;;;;;;;;779286;180;869976;-65
2023/01/20 02:18:53;;;;;;;40.50;20.43;;;;;;;;;;764284;180;919088;-64
2023/01/20 02:21:34;;;;;;;42.53;24.10;;;;;;;;;;769754;181;919398;-64
2023/01/20 02:24:00;;;;;;;48.27;25.43;;;;;;;;;;759750;181;920090;-61
2023/01/20 02:26:26;;;;;;;45.10;24.07;;;;;;;;;;768259;182;918542;-64
2023/01/20 02:29:00;;;;;;;48.87;26.10;;;;;;;;;;774209;180;915593;-60
2023/01/20 02:31:27;;;;;;;57.30;26.83;;;;;;;;;;777013;179;816885;-64
2023/01/20 02:33:55;;;;;;;51.03;25.27;;;;;;;;;;772637;181;863624;-61
2023/01/20 02:36:31;;;;;;;47.50;26.20;;;;;;;;;;774562;181;820487;-60
2023/01/20 02:38:57;;;;;;;44.57;25.03;;;;;;;;;;777252;180;818346;-65
2023/01/20 02:41:23;;;;;;;45.90;24.93;;;;;;;;;;772827;180;919605;-60
2023/01/20 02:43:50;;;;;;;49.00;25.48;;;;;;;;;;770311;180;869403;-61
2023/01/20 02:46:21;;;;;;;42.40;23.53;;;;;;;;;;774392;181;816453;-60
2023/01/20 02:48:47;;;;;;;38.20;22.37;;;;;;;;;;771159;180;918489;-60
2023/01/20 02:51:14;;;;;;;41.37;23.30;;;;;;;;;;773567;179;816670;-61
2023/01/20 02:53:40;;;;;;;38.17;23.60;;;;;;;;;;769107;181;920658;-61
2023/01/20 02:56:05;;;;;;;38.07;23.20;;;;;;;;;;772582;180;919271;-64
2023/01/20 02:58:36;;;;;;;40.30;23.57;;;;;;;;;;769720;181;918799;-61
2023/01/20 03:01:01;;;;;;;42.63;22.17;;;;;;;;;;761070;181;919987;-61
2023/01/20 03:03:26;;;;;;;43.40;21.30;;;;;;;;;;777902;181;919057;-66
2023/01/20 03:05:52;;;;;;;42.43;22.30;;;;;;;;;;771671;180;919234;-64
2023/01/20 03:08:18;;;;;;;40.73;24.07;;;;;;;;;;772313;180;914915;-64
2023/01/20 03:10:43;;;;;;;44.23;24.23;;;;;;;;;;769116;181;918662;-61
2023/01/20 03:13:12;;;;;;;46.17;24.47;;;;;;;;;;775501;181;914805;-60
2023/01/20 03:15:36;;;;;;;37.57;22.47;;;;;;;;;;771716;180;916593;-65
2023/01/20 03:18:02;;;;;;;41.93;22.00;;;;;;;;;;764677;181;918378;-61
2023/01/20 03:20:28;;;;;;;41.70;25.87;;;;;;;;;;765228;182;919328;-61
2023/01/20 03:22:54;;;;;;;43.30;25.90;;;;;;;;;;769269;181;906533;-61
2023/01/20 03:25:19;;;;;;;42.33;23.23;;;;;;;;;;773711;181;918513;-60
2023/01/20 03:27:45;;;;;;;46.43;23.00;;;;;;;;;;776000;180;917211;-61
2023/01/20 03:30:12;;;;;;;46.80;25.53;;;;;;;;;;763720;181;918858;-61
2023/01/20 03:32:37;;;;;;;47.10;24.60;;;;;;;;;;770666;181;848282;-61
2023/01/20 03:35:04;;;;;;;45.92;23.60;;;;;;;;;;772419;180;923479;-61
2023/01/20 03:37:29;;;;;;;44.28;25.45;;;;;;;;;;773308;180;947108;-63
2023/01/20 03:39:56;;;;;;;45.07;25.07;;;;;;;;;;767681;180;919661;-65
2023/01/20 03:42:21;;;;;;;44.27;22.60;;;;;;;;;;770144;180;919753;-65
2023/01/20 03:44:53;;;;;;;47.83;23.87;;;;;;;;;;775746;180;917547;-64
2023/01/20 03:47:20;;;;;;;44.77;23.63;;;;;;;;;;770593;179;919556;-64
2023/01/20 03:49:48;;;;;;;49.30;24.97;;;;;;;;;;772338;180;918650;-64
2023/01/20 03:52:16;;;;;;;44.67;24.00;;;;;;;;;;770134;181;920473;-65
2023/01/20 03:54:43;;;;;;;51.47;24.53;;;;;;;;;;777575;180;919812;-65
2023/01/20 03:57:10;;;;;;;45.17;24.37;;;;;;;;;;772175;181;917937;-61
2023/01/20 03:59:36;;;;;;;43.10;24.03;;;;;;;;;;772212;181;918751;-64
2023/01/20 04:02:02;;;;;;;36.70;20.47;;;;;;;;;;776940;179;815910;-61
2023/01/20 04:04:28;;;;;;;47.53;25.80;;;;;;;;;;779051;179;850059;-61
2023/01/20 04:06:53;;;;;;;43.05;24.75;;;;;;;;;;774774;180;918774;-64
2023/01/20 04:09:19;;;;;;;49.00;23.80;;;;;;;;;;773741;180;918469;-61
2023/01/20 04:11:45;;;;;;;41.53;22.27;;;;;;;;;;772058;181;919308;-60
2023/01/20 04:14:11;;;;;;;39.37;24.37;;;;;;;;;;774516;180;918522;-64
2023/01/20 04:16:37;;;;;;;37.93;21.70;;;;;;;;;;769838;179;913380;-65
2023/01/20 04:19:02;;;;;;;51.20;26.70;;;;;;;;;;774356;180;921094;-66
2023/01/20 04:21:32;;;;;;;43.30;24.27;;;;;;;;;;770877;181;916893;-65
2023/01/20 04:24:03;;;;;;;44.90;23.77;;;;;;;;;;770937;180;921148;-65
2023/01/20 04:26:29;;;;;;;41.47;25.10;;;;;;;;;;771365;179;908251;-60
2023/01/20 04:28:55;;;;;;;44.63;26.57;;;;;;;;;;777314;181;918243;-60
2023/01/20 04:31:20;;;;;;;39.30;22.42;;;;;;;;;;767928;182;917193;-65
2023/01/20 04:33:46;;;;;;;40.87;23.90;;;;;;;;;;773025;179;919263;-65
2023/01/20 04:36:12;;;;;;;36.60;21.07;;;;;;;;;;776285;180;915075;-65
2023/01/20 04:38:38;;;;;;;37.23;20.43;;;;;;;;;;772344;179;919851;-61
2023/01/20 04:41:04;;;;;;;41.20;21.73;;;;;;;;;;768405;180;909999;-65
2023/01/20 04:43:30;;;;;;;38.30;22.83;;;;;;;;;;777376;180;922817;-61
2023/01/20 04:45:56;;;;;;;38.00;22.30;;;;;;;;;;766399;179;918803;-61
2023/01/20 04:48:22;;;;;;;37.43;22.37;;;;;;;;;;769054;181;918313;-63
2023/01/20 04:50:47;;;;;;;44.33;24.87;;;;;;;;;;769667;180;919220;-60
2023/01/20 04:53:15;;;;;;;40.33;24.00;;;;;;;;;;765146;183;918781;-65
2023/01/20 04:55:39;;;;;;;43.80;21.97;;;;;;;;;;765344;180;919186;-64
2023/01/20 04:58:05;;;;;;;38.10;22.67;;;;;;;;;;769456;181;921958;-65
2023/01/20 05:00:31;;;;;;;43.07;24.80;;;;;;;;;;773364;180;887752;-61
2023/01/20 05:02:57;;;;;;;35.63;20.90;;;;;;;;;;768963;180;928085;-67
2023/01/20 05:05:23;;;;;;;42.10;25.47;;;;;;;;;;768156;180;915031;-64
2023/01/20 05:07:48;;;;;;;48.00;28.03;;;;;;;;;;776471;181;889507;-65
2023/01/20 05:10:16;;;;;;;48.73;29.20;;;;;;;;;;768377;180;920882;-60
2023/01/20 05:12:43;;;;;;;46.83;28.63;;;;;;;;;;767183;181;878800;-61
2023/01/20 05:15:09;;;;;;;56.17;29.40;;;;;;;;;;773250;180;917714;-65
2023/01/20 05:17:34;;;;;;;50.80;29.50;;;;;;;;;;777304;181;841560;-65
2023/01/20 05:20:00;;;;;;;46.70;31.50;;;;;;;;;;769310;180;919486;-66
2023/01/20 05:22:27;;;;;;;51.43;31.30;;;;;;;;;;768133;180;913055;-65
2023/01/20 05:24:52;;;;;;;53.87;30.65;;;;;;;;;;776311;180;915052;-65
2023/01/20 05:27:18;;;;;;;57.03;32.40;;;;;;;;;;772980;180;1044232;-61
2023/01/20 05:29:44;;;;;;;52.13;31.80;;;;;;;;;;772160;180;918037;-65
2023/01/20 05:32:10;;;;;;;43.75;29.23;;;;;;;;;;778556;180;919048;-61
2023/01/20 05:34:35;;;;;;;47.70;26.30;;;;;;;;;;774925;180;886177;-65
2023/01/20 05:37:01;;;;;;;54.30;28.45;;;;;;;;;;771784;180;923746;-65
2023/01/20 05:39:27;;;;;;;46.20;25.43;;;;;;;;;;769310;180;919084;-65
2023/01/20 05:41:53;;;;;;;40.47;25.10;;;;;;;;;;772175;180;818670;-67
2023/01/20 05:44:19;;;;;;;40.43;23.60;;;;;;;;;;769952;180;918029;-61
2023/01/20 05:46:45;;;;;;;48.33;24.17;;;;;;;;;;772765;181;651049;-65
2023/01/20 05:49:11;;;;;;;39.17;25.03;;;;;;;;;;775460;181;616698;-61
2023/01/20 05:51:36;;;;;;;38.97;23.43;;;;;;;;;;772478;181;633028;-61
2023/01/20 05:54:02;;;;;;;41.00;23.55;;;;;;;;;;775266;180;916109;-62
2023/01/20 05:56:28;;;;;;;35.27;19.67;;;;;;;;;;775627;180;920821;-65
2023/01/20 05:58:54;;;;;;;38.58;23.10;;;;;;;;;;772842;181;914433;-61
2023/01/20 06:01:20;;;;;;;31.30;18.80;;;;;;;;;;771739;180;827370;-66
2023/01/20 06:03:46;;;;;;;35.20;20.20;;;;;;;;;;775316;180;917683;-61
2023/01/20 06:06:14;;;;;;;31.50;21.23;;;;;;;;;;763445;182;715157;-60
2023/01/20 06:08:39;;;;;;;40.00;23.63;;;;;;;;;;763595;183;652024;-65
2023/01/20 06:11:05;;;;;;;68.67;36.20;;;;;;;;;;759359;184;716328;-61
2023/01/20 06:13:31;;;;;;;68.33;37.47;;;;;;;;;;767651;183;919170;-66
2023/01/20 06:15:57;;;;;;;65.80;35.93;;;;;;;;;;761336;183;919360;-61
2023/01/20 06:18:22;;;;;;;55.33;30.17;;;;;;;;;;761137;184;1020873;-60
2023/01/20 06:20:48;;;;;;;51.03;29.73;;;;;;;;;;781216;180;919517;-65
2023/01/20 06:23:14;;;;;;;44.87;27.47;;;;;;;;;;771434;180;920112;-61
2023/01/20 06:25:40;;;;;;;50.10;26.43;;;;;;;;;;776656;177;919214;-64
2023/01/20 06:28:06;;;;;;;43.77;23.90;;;;;;;;;;783716;179;817236;-65
2023/01/20 06:30:32;;;;;;;46.10;24.80;;;;;;;;;;771786;179;925669;-65
2023/01/20 06:32:58;;;;;;;41.33;22.57;;;;;;;;;;771487;179;919519;-65
2023/01/20 06:35:24;;;;;;;38.83;22.10;;;;;;;;;;771864;181;817137;-65
2023/01/20 06:37:49;;;;;;;43.83;25.37;;;;;;;;;;779710;181;917938;-66
2023/01/20 06:40:16;;;;;;;36.93;21.77;;;;;;;;;;773586;179;912175;-65
2023/01/20 06:42:41;;;;;;;40.67;20.70;;;;;;;;;;771444;181;871426;-61
2023/01/20 06:45:08;;;;;;;40.63;22.70;;;;;;;;;;775641;181;918001;-66
2023/01/20 06:47:34;;;;;;;41.23;21.37;;;;;;;;;;763670;181;920095;-65
2023/01/20 06:49:59;;;;;;;41.90;22.37;;;;;;;;;;769611;181;920251;-61
2023/01/20 06:52:25;;;;;;;38.57;20.27;;;;;;;;;;774561;181;916157;-61
2023/01/20 06:54:51;;;;;;;40.90;22.60;;;;;;;;;;761134;180;919935;-61
2023/01/20 06:57:17;;;;;;;43.57;22.37;;;;;;;;;;773244;180;921913;-65
2023/01/20 06:59:43;;;;;;;44.00;23.80;;;;;;;;;;772184;180;918485;-65
2023/01/20 07:02:09;;;;;;;40.73;22.70;;;;;;;;;;779271;180;922288;-60
2023/01/20 07:04:34;;;;;;;43.07;24.00;;;;;;;;;;772377;180;916342;-61
2023/01/20 07:07:00;;;;;;;41.63;22.33;;;;;;;;;;756619;184;824547;-61
2023/01/20 07:09:26;;;;;;;35.00;20.93;;;;;;;;;;762498;184;817279;-65
2023/01/20 07:11:52;;;;;;;60.87;35.60;;;;;;;;;;751571;184;919436;-61
2023/01/20 07:14:18;;;;;;;64.77;39.70;;;;;;;;;;769201;180;918999;-64
2023/01/20 07:16:44;;;;;;;63.13;37.93;;;;;;;;;;770351;181;920451;-65
2023/01/20 07:19:09;;;;;;;50.80;30.23;;;;;;;;;;759818;183;920471;-61
2023/01/20 07:21:35;;;;;;;57.47;32.95;;;;;;;;;;772403;180;918552;-65
2023/01/20 07:24:01;;;;;;;49.88;28.62;;;;;;;;;;776624;179;919718;-63
2023/01/20 07:26:27;;;;;;;58.57;29.10;;;;;;;;;;770595;181;919800;-65
2023/01/20 07:28:53;;;;;;;44.47;26.30;;;;;;;;;;765944;181;919929;-65
2023/01/20 07:31:19;;;;;;;43.80;28.77;;;;;;;;;;773309;180;919258;-65
2023/01/20 07:33:45;;;;;;;42.87;26.03;;;;;;;;;;780801;180;919141;-65
2023/01/20 07:36:11;;;;;;;42.65;22.85;;;;;;;;;;772170;180;919385;-61
2023/01/20 07:38:37;;;;;;;51.10;25.87;;;;;;;;;;775239;178;918709;-65
2023/01/20 07:41:02;;;;;;;48.37;27.10;;;;;;;;;;781353;180;918522;-61
2023/01/20 07:43:28;;;;;;;41.27;26.57;;;;;;;;;;781434;180;816610;-61
2023/01/20 07:45:54;;;;;;;170.23;81.70;;;;;;;;;;771543;180;919692;-65
2023/01/20 07:48:20;;;;;;;61.73;33.27;;;;;;;;;;775230;181;917805;-60
2023/01/20 07:50:46;;;;;;;40.27;29.33;;;;;;;;;;769600;181;918310;-61
2023/01/20 07:53:12;;;;;;;42.30;24.30;;;;;;;;;;773949;179;919671;-65
2023/01/20 07:55:37;;;;;;;37.60;23.27;;;;;;;;;;768840;179;919336;-65
2023/01/20 07:58:03;;;;;;;36.97;24.07;;;;;;;;;;770391;181;921975;-65
2023/01/20 08:00:29;;;;;;;56.13;27.93;;;;;;;;;;773449;180;919616;-60
2023/01/20 08:02:55;;;;;;;43.80;25.30;;;;;;;;;;776254;180;920089;-64
2023/01/20 08:05:21;;;;;;;41.27;24.37;;;;;;;;;;770665;183;915943;-61
2023/01/20 08:07:48;;;;;;;47.67;24.50;;;;;;;;;;760003;183;917008;-61
2023/01/20 08:10:15;;;;;;;35.60;22.30;;;;;;;;;;760974;183;814065;-61
2023/01/20 08:12:41;;;;;;;40.67;24.00;;;;;;;;;;770748;181;916359;-61
2023/01/20 08:15:07;;;;;;;38.10;23.63;;;;;;;;;;771301;181;916596;-64
2023/01/20 08:17:33;;;;;;;41.07;20.03;;;;;;;;;;767379;181;919391;-66
2023/01/20 08:19:59;;;;;;;43.33;23.43;;;;;;;;;;761131;182;820992;-65
2023/01/20 08:22:25;;;;;;;41.23;23.80;;;;;;;;;;766353;182;893098;-61
2023/01/20 08:24:50;;;;;;;53.30;27.40;;;;;;;;;;762995;181;919548;-61
2023/01/20 08:27:16;;;;;;;65.20;32.55;;;;;;;;;;774162;180;917862;-61
2023/01/20 08:29:42;;;;;;;40.83;20.97;;;;;;;;;;777940;180;909207;-65
2023/01/20 08:32:08;;;;;;;60.30;35.60;;;;;;;;;;759412;180;894677;-67
2023/01/20 08:34:34;;;;;;;43.17;23.20;;;;;;;;;;758789;182;919171;-65
2023/01/20 08:37:00;;;;;;;54.73;31.80;;;;;;;;;;765316;181;917830;-61
2023/01/20 08:39:26;;;;;;;53.83;29.57;;;;;;;;;;761607;182;918882;-66
2023/01/20 08:41:51;;;;;;;55.47;32.10;;;;;;;;;;770036;180;919148;-61
2023/01/20 08:44:19;;;;;;;53.97;26.87;;;;;;;;;;772598;180;919504;-61
2023/01/20 08:46:43;;;;;;;51.67;25.67;;;;;;;;;;774333;181;919368;-65
2023/01/20 08:49:09;;;;;;;63.90;32.70;;;;;;;;;;776718;178;919066;-66
2023/01/20 08:51:35;;;;;;;47.72;27.05;;;;;;;;;;777736;180;919430;-66
2023/01/20 08:54:01;;;;;;;43.50;24.77;;;;;;;;;;777859;180;917870;-63
2023/01/20 08:56:27;;;;;;;45.23;28.63;;;;;;;;;;771724;180;924487;-61
2023/01/20 08:58:53;;;;;;;41.70;25.43;;;;;;;;;;770106;180;917904;-61
2023/01/20 09:01:19;;;;;;;39.00;24.37;;;;;;;;;;777048;180;840222;-66
2023/01/20 09:03:45;;;;;;;44.50;21.17;;;;;;;;;;771897;181;919059;-65
2023/01/20 09:06:11;;;;;;;42.60;25.97;;;;;;;;;;762318;180;853281;-65
2023/01/20 09:08:37;;;;;;;47.80;28.40;;;;;;;;;;763431;183;884617;-62
2023/01/20 09:11:04;;;;;;;50.60;27.60;;;;;;;;;;756163;184;918942;-62
2023/01/20 09:13:30;;;;;;;50.67;28.33;;;;;;;;;;768444;181;918156;-62
2023/01/20 09:15:55;;;;;;;56.90;28.77;;;;;;;;;;773646;180;919265;-66
2023/01/20 09:18:21;;;;;;;47.30;24.33;;;;;;;;;;774774;181;919250;-62
2023/01/20 09:20:47;;;;;;;37.73;21.37;;;;;;;;;;769821;180;919357;-66
2023/01/20 09:23:13;;;;;;;56.87;29.63;;;;;;;;;;759892;182;919336;-65
2023/01/20 09:25:39;;;;;;;27.80;17.27;;;;;;;;;;765742;181;918782;-66
2023/01/20 09:28:05;;;;;;;32.33;16.97;;;;;;;;;;768137;181;918173;-62
2023/01/20 09:30:31;;;;;;;46.47;20.50;;;;;;;;;;767786;181;920507;-67
2023/01/20 09:32:56;;;;;;;62.42;29.40;;;;;;;;;;770434;181;919185;-63
2023/01/20 09:35:22;;;;;;;50.87;27.20;;;;;;;;;;775311;180;918058;-64
2023/01/20 09:45:32;;;;;;;62.83;35.13;;;;;;;;;;745910;185;817505;-63
2023/01/20 09:48:00;;;;;;;53.23;29.73;;;;;;;;;;742914;188;920544;-61
2023/01/20 09:53:29;;;;;;;52.50;25.33;;;;;;;;;;742189;189;918789;-64
2023/01/20 09:55:55;;;;;;;44.47;22.63;;;;;;;;;;746000;185;919212;-64
2023/01/20 09:58:38;;;;;;;31.87;18.17;;;;;;;;;;752110;185;861883;-63
2023/01/20 10:01:19;;;;;;;24.57;15.57;;;;;;;;;;750605;184;919517;-69
2023/01/20 10:03:48;;;;;;;30.80;14.20;;;;;;;;;;741144;188;915885;-68
2023/01/20 10:06:15;;;;;;;37.43;23.17;;;;;;;;;;750462;187;918689;-68
2023/01/20 10:08:40;;;;;;;39.88;23.38;;;;;;;;;;773123;179;919333;-62
2023/01/20 10:11:06;;;;;;;56.60;28.33;;;;;;;;;;770200;180;920662;-67
2023/01/20 10:13:32;;;;;;;19.40;11.50;;;;;;;;;;770557;181;918518;-62
2023/01/20 10:15:58;;;;;;;38.93;18.97;;;;;;;;;;765007;183;1043162;-61
2023/01/20 10:18:26;;;;;;;42.90;24.70;;;;;;;;;;771634;179;916965;-66
2023/01/20 10:20:53;;;;;;;39.17;19.33;;;;;;;;;;767726;181;919618;-67
2023/01/20 10:23:21;;;;;;;32.87;20.90;;;;;;;;;;764746;182;918746;-62
2023/01/20 10:25:46;;;;;;;36.10;19.20;;;;;;;;;;759559;181;919319;-63
2023/01/20 10:28:13;;;;;;;24.13;13.97;;;;;;;;;;766832;180;915351;-68
2023/01/20 10:30:39;;;;;;;38.58;22.75;;;;;;;;;;769122;180;919479;-61
2023/01/20 10:33:08;;;;;;;37.47;17.93;;;;;;;;;;780814;180;919629;-66
2023/01/20 10:35:35;;;;;;;26.07;15.33;;;;;;;;;;774325;179;919615;-60
2023/01/20 10:38:00;;;;;;;53.55;21.60;;;;;;;;;;769408;181;917852;-60
2023/01/20 10:40:28;;;;;;;25.50;15.30;;;;;;;;;;774218;181;918674;-60
2023/01/20 10:42:54;;;;;;;24.98;14.25;;;;;;;;;;774632;179;919393;-66
2023/01/20 10:45:23;;;;;;;21.60;11.47;;;;;;;;;;773278;180;919384;-61
2023/01/20 10:47:49;;;;;;;18.33;11.53;;;;;;;;;;769412;181;918000;-67
2023/01/20 10:50:17;;;;;;;28.20;16.17;;;;;;;;;;774511;181;816417;-68
2023/01/20 10:52:58;;;;;;;27.05;12.57;;;;;;;;;;769446;179;919662;-68
2023/01/20 10:55:30;;;;;;;30.50;17.00;;;;;;;;;;772749;179;919157;-63
2023/01/20 10:57:55;;;;;;;45.87;22.13;;;;;;;;;;769440;179;917956;-68
2023/01/20 11:00:21;;;;;;;26.80;14.03;;;;;;;;;;773839;181;918414;-63
2023/01/20 11:02:48;;;;;;;20.83;12.33;;;;;;;;;;773193;181;903278;-69
2023/01/20 11:05:16;;;;;;;18.27;9.40;;;;;;;;;;770125;180;920266;-63
2023/01/20 11:07:42;;;;;;;26.50;16.40;;;;;;;;;;770737;181;918396;-64
2023/01/20 11:10:16;;;;;;;40.50;20.97;;;;;;;;;;778344;181;918737;-63
2023/01/20 11:12:41;;;;;;;38.33;23.50;;;;;;;;;;780691;179;919392;-68
2023/01/20 11:15:19;;;;;;;43.53;26.40;;;;;;;;;;781556;179;919287;-62
2023/01/20 11:17:44;;;;;;;57.80;25.48;;;;;;;;;;772343;181;910854;-62
2023/01/20 11:20:10;;;;;;;36.87;14.77;;;;;;;;;;775358;181;919179;-68
2023/01/20 11:22:36;;;;;;;29.43;17.60;;;;;;;;;;769369;178;918240;-62
2023/01/20 11:25:03;;;;;;;54.63;29.97;;;;;;;;;;768690;181;919847;-62
2023/01/20 11:27:31;;;;;;;41.43;24.17;;;;;;;;;;771600;180;919359;-69
2023/01/20 11:29:57;;;;;;;59.30;30.87;;;;;;;;;;778497;180;918759;-66
2023/01/20 11:32:31;;;;;;;60.73;33.20;;;;;;;;;;773397;180;924662;-66
2023/01/20 11:34:57;;;;;;;49.53;29.93;;;;;;;;;;775877;180;920280;-67
2023/01/20 11:37:25;;;;;;;54.07;24.97;;;;;;;;;;772776;180;918137;-62
2023/01/20 11:39:59;;;;;;;81.47;37.23;;;;;;;;;;775150;181;920247;-67
2023/01/20 11:42:24;;;;;;;53.87;32.93;;;;;;;;;;774869;181;919053;-66
2023/01/20 11:44:50;;;;;;;60.07;33.20;;;;;;;;;;771162;180;920878;-67
2023/01/20 11:47:23;;;;;;;62.03;33.77;;;;;;;;;;771162;181;918897;-62
2023/01/20 11:50:10;;;;;;;50.77;24.20;;;;;;;;;;760207;183;919245;-68
2023/01/20 11:52:36;;;;;;;40.03;24.45;;;;;;;;;;768306;181;918785;-67
2023/01/20 11:55:07;;;;;;;50.97;30.67;;;;;;;;;;769582;181;918155;-68
2023/01/20 11:57:33;;;;;;;67.47;36.15;;;;;;;;;;772726;180;918348;-66
2023/01/20 11:59:59;;;;;;;35.37;25.30;;;;;;;;;;772488;180;918917;-62
2023/01/20 12:02:26;;;;;;;54.37;27.07;;;;;;;;;;778306;180;911965;-62
2023/01/20 12:05:04;;;;;;;49.50;23.27;;;;;;;;;;771471;180;917750;-66
2023/01/20 12:07:32;;;;;;;43.93;22.67;;;;;;;;;;771783;180;918167;-66
2023/01/20 12:09:57;;;;;;;57.80;32.33;;;;;;;;;;769240;180;917933;-66
2023/01/20 12:12:35;;;;;;;44.13;25.07;;;;;;;;;;774335;180;917823;-68
2023/01/20 12:15:01;;;;;;;61.77;28.53;;;;;;;;;;773260;180;918307;-66
2023/01/20 12:17:27;;;;;;;46.03;22.67;;;;;;;;;;767935;181;918977;-66
2023/01/20 12:20:05;;;;;;;47.42;27.25;;;;;;;;;;764278;182;919753;-63
2023/01/20 12:22:32;;;;;;;42.33;25.50;;;;;;;;;;738087;187;918131;-61
2023/01/20 12:27:29;;;;;;;80.90;37.20;;;;;;;;;;765727;179;915005;-61
2023/01/20 12:29:55;;;;;;;47.20;26.97;;;;;;;;;;751337;185;1022528;-61
2023/01/20 12:32:21;;;;;;;45.87;23.67;;;;;;;;;;753963;186;920875;-66
2023/01/20 12:34:47;;;;;;;46.50;19.83;;;;;;;;;;755163;186;918789;-66
2023/01/20 12:37:21;;;;;;;34.53;15.93;;;;;;;;;;762953;180;918261;-66
2023/01/20 12:39:47;;;;;;;48.37;21.20;;;;;;;;;;773687;180;919551;-61
2023/01/20 12:42:14;;;;;;;53.23;24.13;;;;;;;;;;775525;181;817205;-67
2023/01/20 12:44:46;;;;;;;38.50;18.70;;;;;;;;;;776433;181;871878;-68
2023/01/20 12:47:26;;;;;;;32.63;16.20;;;;;;;;;;768792;181;863293;-61
2023/01/20 12:49:55;;;;;;;39.77;20.17;;;;;;;;;;770901;180;917729;-61
2023/01/20 12:52:35;;;;;;;24.70;15.00;;;;;;;;;;772879;180;908818;-66
2023/01/20 12:55:07;;;;;;;64.80;31.77;;;;;;;;;;775617;179;915369;-61
2023/01/20 12:57:39;;;;;;;31.17;18.70;;;;;;;;;;769777;181;1687198;-62
2023/01/20 13:00:05;;;;;;;27.73;17.43;;;;;;;;;;770591;181;1012528;-61
2023/01/20 13:02:36;;;;;;;40.30;24.02;;;;;;;;;;769935;180;816760;-61
2023/01/20 13:05:18;;;;;;;36.33;20.87;;;;;;;;;;772441;180;917442;-68
2023/01/20 13:07:59;;;;;;;31.97;18.90;;;;;;;;;;765278;179;918813;-66
2023/01/20 13:10:27;;;;;;;35.83;16.20;;;;;;;;;;750950;184;917405;-66
2023/01/20 13:13:09;;;;;;;26.70;17.35;;;;;;;;;;767305;181;913070;-66
2023/01/20 13:15:36;;;;;;;42.90;20.97;;;;;;;;;;768805;180;873820;-67
2023/01/20 13:18:05;;;;;;;27.73;13.07;;;;;;;;;;768732;181;918385;-67
2023/01/20 13:20:31;;;;;;;33.20;18.10;;;;;;;;;;768683;181;918162;-62
2023/01/20 13:22:57;;;;;;;38.60;20.20;;;;;;;;;;768853;180;919355;-62
2023/01/20 13:25:23;;;;;;;29.70;17.70;;;;;;;;;;773975;181;854049;-68
2023/01/20 13:27:50;;;;;;;35.40;18.10;;;;;;;;;;773732;180;814437;-62
2023/01/20 13:30:21;;;;;;;28.57;15.47;;;;;;;;;;772386;180;917994;-62
2023/01/20 13:32:47;;;;;;;25.73;12.43;;;;;;;;;;770885;180;919280;-62
2023/01/20 13:35:32;;;;;;;19.60;10.07;;;;;;;;;;775803;179;919816;-62
2023/01/20 13:37:58;;;;;;;21.23;11.30;;;;;;;;;;774209;179;920660;-62
2023/01/20 13:40:29;;;;;;;16.90;10.23;;;;;;;;;;767550;180;918602;-67
2023/01/20 13:42:55;;;;;;;52.07;26.23;;;;;;;;;;773084;180;817307;-61
2023/01/20 13:45:21;;;;;;;27.27;18.77;;;;;;;;;;771271;181;919605;-67
2023/01/20 13:47:48;;;;;;;29.57;15.40;;;;;;;;;;769145;182;936709;-62
2023/01/20 13:50:19;;;;;;;31.80;16.80;;;;;;;;;;769001;181;918098;-62
2023/01/20 13:53:04;;;;;;;31.30;18.13;;;;;;;;;;776033;179;917796;-62
2023/01/20 13:55:45;;;;;;;32.30;14.87;;;;;;;;;;764850;181;916020;-67
2023/01/20 13:58:16;;;;;;;25.77;16.67;;;;;;;;;;772081;180;825634;-61
2023/01/20 14:00:42;;;;;;;45.27;20.93;;;;;;;;;;771797;181;816012;-67
2023/01/20 14:03:26;;;;;;;31.20;18.50;;;;;;;;;;773411;181;919920;-62
2023/01/20 14:05:56;;;;;;;23.30;12.17;;;;;;;;;;777771;180;907158;-63
2023/01/20 14:08:22;;;;;;;22.73;12.03;;;;;;;;;;766696;181;917894;-61
2023/01/20 14:10:48;;;;;;;41.33;25.60;;;;;;;;;;770842;180;919369;-68
2023/01/20 14:13:18;;;;;;;18.80;12.80;;;;;;;;;;773593;181;920794;-68
2023/01/20 14:15:44;;;;;;;24.93;12.80;;;;;;;;;;771044;180;922079;-62